Terminal Aerodrome Forecast
Issued by NWS Caribou, ME

Home | Current Version | Previous Version | Text Only | Print | Product List | Glossary On
Versions: 1 2 3 4 5 6 7 8 9 10 11 12 13 14 15 16
000
FTUS41 KCAR 031120
TAFCAR
TAF
KCAR 031120Z 0312/0412 15006KT P6SM SCT070 BKN150
     FM031700 18010G18KT P6SM SCT050 BKN070
     FM032200 17011KT 5SM -TSRA SCT030CB OVC050
     FM040200 19006KT 4SM -SHRA VCTS OVC030CB
     FM040500 19006KT 4SM -SHRA BR OVC015=

USA.gov is the U.S. government's official web portal to all federal, state and local government web resources and services.